Time;durP1;ratioP1;P1;durP2;ratioP2;P2;SDS_P1;SDS_P2;PMS_P1;PMS_P2;Temp;Humidity;BMP_temperature;BMP_pressure;BME280_temperature;BME280_humidity;BME280_pressure;Samples;Min_cycle;Max_cycle;Signal;HPM_P1;HPM_P2
2022/01/16 00:00:40;;;;;;;;;;;;;;;;;;5023304;28;20502;-79
2022/01/16 00:05:51;;;;;;;;;;;;;;;;;;5019062;28;19940;-80
2022/01/16 00:08:18;;;;;;;;;;;;;;;;;;5018959;28;19965;-82
2022/01/16 00:10:44;;;;;;;;;;;;;;;;;;5025442;28;19956;-81
2022/01/16 00:13:10;;;;;;;;;;;;;;;;;;5025563;28;19952;-80
2022/01/16 00:15:36;;;;;;;;;;;;;;;;;;5026845;28;19991;-84
2022/01/16 00:20:29;;;;;;;;;;;;;;;;;;5033100;28;19965;-83
2022/01/16 00:22:55;;;;;;;;;;;;;;;;;;5024303;28;19945;-81
2022/01/16 00:25:22;;;;;;;;;;;;;;;;;;5010140;28;19956;-82
2022/01/16 00:27:48;;;;;;;;;;;;;;;;;;5018267;28;20031;-81
2022/01/16 00:30:14;;;;;;;;;;;;;;;;;;5023667;28;20354;-79
2022/01/16 00:32:40;;;;;;;;;;;;;;;;;;5018879;28;19963;-80
2022/01/16 00:35:06;;;;;;;;;;;;;;;;;;5022557;28;20085;-83
2022/01/16 00:37:33;;;;;;;;;;;;;;;;;;5022680;28;19949;-82
2022/01/16 00:39:59;;;;;;;;;;;;;;;;;;5021811;28;19955;-81
2022/01/16 00:42:25;;;;;;;;;;;;;;;;;;5010860;28;20006;-82
2022/01/16 00:44:51;;;;;;;;;;;;;;;;;;5025084;28;20583;-80
2022/01/16 00:47:17;;;;;;;;;;;;;;;;;;5021624;28;19956;-80
2022/01/16 00:49:44;;;;;;;;;;;;;;;;;;5025644;28;20411;-81
2022/01/16 00:52:10;;;;;;;;;;;;;;;;;;5020281;28;20003;-82
2022/01/16 00:54:36;;;;;;;;;;;;;;;;;;5028387;28;20360;-82
2022/01/16 00:57:02;;;;;;;;;;;;;;;;;;5000332;28;19949;-80
2022/01/16 00:59:28;;;;;;;;;;;;;;;;;;5008416;28;20080;-82
2022/01/16 01:01:55;;;;;;;;;;;;;;;;;;5005813;28;20614;-81
2022/01/16 01:04:21;;;;;;;;;;;;;;;;;;5025477;28;19983;-80
2022/01/16 01:06:49;;;;;;;;;;;;;;;;;;5022718;28;19944;-81
2022/01/16 01:09:15;;;;;;;;;;;;;;;;;;5009564;28;19991;-82
2022/01/16 01:11:44;;;;;;;;;;;;;;;;;;4989726;28;19917;-81
2022/01/16 01:14:25;;;;;;;;;;;;;;;;;;5002789;28;20019;-81
2022/01/16 01:16:53;;;;;;;;;;;;;;;;;;5001596;28;19956;-81
2022/01/16 01:19:20;;;;;;;;;;;;;;;;;;5004476;28;20026;-80
2022/01/16 01:21:46;;;;;;;;;;;;;;;;;;5002280;28;19945;-79
2022/01/16 01:24:12;;;;;;;;;;;;;;;;;;5047123;28;20405;-80
2022/01/16 01:26:49;;;;;;;;;;;;;;;;;;5024259;28;19965;-81
2022/01/16 01:29:19;;;;;;;;;;;;;;;;;;5055560;28;19957;-82
2022/01/16 01:31:45;;;;;;;;;;;;;;;;;;5012616;28;20066;-82
2022/01/16 01:34:11;;;;;;;;;;;;;;;;;;4999857;28;19956;-82
2022/01/16 01:36:38;;;;;;;;;;;;;;;;;;5020079;28;20699;-82
2022/01/16 01:39:04;;;;;;;;;;;;;;;;;;5018157;28;19972;-79
2022/01/16 01:41:30;;;;;;;;;;;;;;;;;;5026348;28;20451;-81
2022/01/16 01:52:11;;;;;;;;;;;;;;;;;;5024178;28;20455;-83
2022/01/16 01:54:37;;;;;;;;;;;;;;;;;;5030241;28;19990;-81
2022/01/16 01:57:03;;;;;;;;;;;;;;;;;;5026357;28;20033;-83
2022/01/16 01:59:30;;;;;;;;;;;;;;;;;;5018481;28;20595;-83
2022/01/16 02:01:56;;;;;;;;;;;;;;;;;;5026550;28;20473;-82
2022/01/16 02:04:22;;;;;;;;;;;;;;;;;;5021313;28;19952;-86
2022/01/16 02:06:48;;;;;;;;;;;;;;;;;;5025166;28;19971;-81
2022/01/16 02:09:14;;;;;;;;;;;;;;;;;;5020097;28;20034;-82
2022/01/16 02:11:41;;;;;;;;;;;;;;;;;;5022192;28;20451;-81
2022/01/16 02:28:42;;;;;;;;;;;;;;;;;;5026994;28;19917;-83
2022/01/16 02:35:36;;;;;;;;;;;;;;;;;;5024953;28;20373;-84
2022/01/16 02:38:04;;;;;;;;;;;;;;;;;;5030342;28;19942;-82
2022/01/16 02:40:31;;;;;;;;;;;;;;;;;;5023573;28;20019;-82
2022/01/16 02:42:57;;;;;;;;;;;;;;;;;;5022014;28;19917;-82
2022/01/16 02:45:32;;;;;;;;;;;;;;;;;;5060399;28;19925;-83
2022/01/16 02:47:58;;;;;;;;;;;;;;;;;;5032477;28;19920;-83
2022/01/16 02:50:24;;;;;;;;;;;;;;;;;;5010154;28;19917;-82
2022/01/16 02:52:50;;;;;;;;;;;;;;;;;;5023734;28;19958;-83
2022/01/16 02:55:16;;;;;;;;;;;;;;;;;;5022500;28;19972;-81
2022/01/16 02:57:43;;;;;;;;;;;;;;;;;;5029053;28;20328;-82
2022/01/16 03:00:09;;;;;;;;;;;;;;;;;;5027351;28;19933;-83
2022/01/16 03:02:37;;;;;;;;;;;;;;;;;;5026104;28;19917;-83
2022/01/16 03:05:03;;;;;;;;;;;;;;;;;;5026360;28;20452;-84
2022/01/16 03:07:30;;;;;;;;;;;;;;;;;;5025240;28;19948;-83
2022/01/16 03:10:10;;;;;;;;;;;;;;;;;;5027048;28;19968;-83
2022/01/16 03:12:36;;;;;;;;;;;;;;;;;;5026643;28;19979;-83
2022/01/16 03:15:03;;;;;;;;;;;;;;;;;;5020473;28;19971;-83
2022/01/16 03:17:38;;;;;;;;;;;;;;;;;;5033029;28;20468;-82
2022/01/16 03:22:49;;;;;;;;;;;;;;;;;;5030787;28;19945;-85
2022/01/16 03:25:16;;;;;;;;;;;;;;;;;;5029164;28;20455;-83
2022/01/16 03:27:45;;;;;;;;;;;;;;;;;;5035586;28;19917;-83
2022/01/16 03:30:13;;;;;;;;;;;;;;;;;;5025581;28;19957;-83
2022/01/16 03:32:39;;;;;;;;;;;;;;;;;;5027812;28;19953;-86
2022/01/16 03:35:06;;;;;;;;;;;;;;;;;;5039356;28;19983;-84
2022/01/16 03:37:32;;;;;;;;;;;;;;;;;;5031536;28;20046;-83
2022/01/16 03:39:58;;;;;;;;;;;;;;;;;;5027753;28;19964;-81
2022/01/16 03:42:28;;;;;;;;;;;;;;;;;;5028278;28;19940;-80
2022/01/16 03:44:55;;;;;;;;;;;;;;;;;;5059185;28;19921;-80
2022/01/16 03:47:21;;;;;;;;;;;;;;;;;;5023062;28;19949;-84
2022/01/16 03:49:47;;;;;;;;;;;;;;;;;;5026811;28;19917;-82
2022/01/16 03:52:13;;;;;;;;;;;;;;;;;;5027071;28;19957;-80
2022/01/16 03:54:39;;;;;;;;;;;;;;;;;;5027150;28;19971;-81
2022/01/16 03:57:05;;;;;;;;;;;;;;;;;;5030786;28;19964;-82
2022/01/16 03:59:33;;;;;;;;;;;;;;;;;;5027866;28;19968;-81
2022/01/16 04:01:59;;;;;;;;;;;;;;;;;;5024351;28;19964;-82
2022/01/16 04:04:25;;;;;;;;;;;;;;;;;;5029024;28;20013;-81
2022/01/16 04:06:51;;;;;;;;;;;;;;;;;;5023024;28;19941;-81
2022/01/16 04:09:18;;;;;;;;;;;;;;;;;;5028471;28;19964;-82
2022/01/16 04:11:55;;;;;;;;;;;;;;;;;;5031140;28;19965;-83
2022/01/16 04:17:06;;;;;;;;;;;;;;;;;;5018272;28;19956;-83
2022/01/16 04:19:36;;;;;;;;;;;;;;;;;;5028176;28;19935;-83
2022/01/16 04:22:02;;;;;;;;;;;;;;;;;;5026101;28;19956;-85
2022/01/16 04:24:28;;;;;;;;;;;;;;;;;;5027814;28;19952;-84
2022/01/16 04:26:54;;;;;;;;;;;;;;;;;;5031920;28;20396;-84
2022/01/16 04:29:21;;;;;;;;;;;;;;;;;;5025302;28;19918;-84
2022/01/16 04:31:47;;;;;;;;;;;;;;;;;;5028389;28;19948;-83
2022/01/16 04:34:13;;;;;;;;;;;;;;;;;;5031207;28;19956;-85
2022/01/16 04:36:39;;;;;;;;;;;;;;;;;;5028271;28;19967;-84
2022/01/16 04:39:12;;;;;;;;;;;;;;;;;;5022265;28;19967;-83
2022/01/16 04:44:40;;;;;;;;;;;;;;;;;;5024372;28;20312;-82
2022/01/16 04:47:06;;;;;;;;;;;;;;;;;;5024294;28;20390;-82
2022/01/16 04:49:32;;;;;;;;;;;;;;;;;;5028025;28;19967;-81
2022/01/16 04:51:58;;;;;;;;;;;;;;;;;;5025803;28;20330;-81
2022/01/16 04:54:25;;;;;;;;;;;;;;;;;;5022350;28;20014;-82
2022/01/16 04:56:51;;;;;;;;;;;;;;;;;;5024074;28;19949;-84
2022/01/16 04:59:17;;;;;;;;;;;;;;;;;;5026366;28;19983;-81
2022/01/16 05:01:44;;;;;;;;;;;;;;;;;;5021154;28;20011;-82
2022/01/16 05:04:10;;;;;;;;;;;;;;;;;;5025619;28;20397;-82
2022/01/16 05:06:36;;;;;;;;;;;;;;;;;;5025901;28;19952;-84
2022/01/16 05:09:02;;;;;;;;;;;;;;;;;;5023508;28;20385;-83
2022/01/16 05:11:28;;;;;;;;;;;;;;;;;;5021726;28;20341;-82
2022/01/16 05:16:37;;;;;;;;;;;;;;;;;;5021967;28;19960;-83
2022/01/16 05:19:03;;;;;;;;;;;;;;;;;;5024778;28;19959;-83
2022/01/16 05:21:30;;;;;;;;;;;;;;;;;;5023643;28;20057;-82
2022/01/16 05:23:56;;;;;;;;;;;;;;;;;;5023079;28;19955;-81
2022/01/16 05:26:29;;;;;;;;;;;;;;;;;;5027696;28;20079;-81
2022/01/16 05:28:55;;;;;;;;;;;;;;;;;;5037923;28;19960;-82
2022/01/16 05:31:21;;;;;;;;;;;;;;;;;;5027524;28;19979;-82
2022/01/16 05:33:47;;;;;;;;;;;;;;;;;;5023614;28;19956;-81
2022/01/16 05:36:13;;;;;;;;;;;;;;;;;;5025023;28;19945;-81
2022/01/16 05:38:40;;;;;;;;;;;;;;;;;;5017885;28;19974;-80
2022/01/16 05:41:06;;;;;;;;;;;;;;;;;;5039656;28;19983;-80
2022/01/16 05:43:32;;;;;;;;;;;;;;;;;;5022049;28;20384;-82
2022/01/16 05:45:58;;;;;;;;;;;;;;;;;;5025270;28;19961;-82
2022/01/16 05:48:26;;;;;;;;;;;;;;;;;;5022245;28;19948;-81
2022/01/16 05:50:52;;;;;;;;;;;;;;;;;;5022436;28;19961;-81
2022/01/16 05:53:18;;;;;;;;;;;;;;;;;;5021739;28;19971;-82
2022/01/16 05:55:44;;;;;;;;;;;;;;;;;;5025571;28;20474;-82
2022/01/16 05:58:12;;;;;;;;;;;;;;;;;;5028608;28;20309;-83
2022/01/16 06:00:39;;;;;;;;;;;;;;;;;;5004759;28;19976;-82
2022/01/16 06:03:05;;;;;;;;;;;;;;;;;;5003322;28;20345;-81
2022/01/16 06:05:31;;;;;;;;;;;;;;;;;;5003748;28;20407;-79
2022/01/16 06:08:00;;;;;;;;;;;;;;;;;;5004997;28;19968;-80
2022/01/16 06:10:26;;;;;;;;;;;;;;;;;;5018065;28;19975;-82
2022/01/16 06:12:53;;;;;;;;;;;;;;;;;;5024259;28;19953;-82
2022/01/16 06:15:19;;;;;;;;;;;;;;;;;;5022173;28;19921;-81
2022/01/16 06:17:45;;;;;;;;;;;;;;;;;;5057750;28;19960;-82
2022/01/16 06:20:14;;;;;;;;;;;;;;;;;;5020227;28;19968;-81
2022/01/16 06:22:40;;;;;;;;;;;;;;;;;;5023736;28;19964;-81
2022/01/16 06:25:06;;;;;;;;;;;;;;;;;;5027159;28;20422;-80
2022/01/16 06:27:32;;;;;;;;;;;;;;;;;;5024997;28;19956;-82
2022/01/16 06:29:59;;;;;;;;;;;;;;;;;;5024357;28;19952;-85
2022/01/16 06:32:25;;;;;;;;;;;;;;;;;;5026833;28;19933;-82
2022/01/16 06:34:51;;;;;;;;;;;;;;;;;;5029618;28;19921;-81
2022/01/16 06:37:17;;;;;;;;;;;;;;;;;;5028731;28;19940;-81
2022/01/16 06:39:43;;;;;;;;;;;;;;;;;;5016966;28;19972;-82
2022/01/16 06:42:13;;;;;;;;;;;;;;;;;;5000219;28;19918;-81
2022/01/16 06:44:39;;;;;;;;;;;;;;;;;;5002179;28;19953;-81
2022/01/16 06:47:05;;;;;;;;;;;;;;;;;;5015707;28;20369;-83
2022/01/16 06:49:31;;;;;;;;;;;;;;;;;;5027465;28;19945;-83
2022/01/16 06:51:57;;;;;;;;;;;;;;;;;;5024737;28;20422;-81
2022/01/16 06:54:23;;;;;;;;;;;;;;;;;;5025779;28;19940;-83
2022/01/16 06:56:50;;;;;;;;;;;;;;;;;;5023106;28;20393;-80
2022/01/16 06:59:16;;;;;;;;;;;;;;;;;;5027872;28;19952;-82
2022/01/16 07:01:42;;;;;;;;;;;;;;;;;;5024997;28;19965;-82
2022/01/16 07:04:08;;;;;;;;;;;;;;;;;;5018585;28;19921;-83
2022/01/16 07:06:34;;;;;;;;;;;;;;;;;;5024226;28;19960;-82
2022/01/16 07:09:01;;;;;;;;;;;;;;;;;;5025780;28;19959;-82
2022/01/16 07:11:27;;;;;;;;;;;;;;;;;;5007666;28;20365;-83
2022/01/16 07:13:53;;;;;;;;;;;;;;;;;;5009468;28;19956;-83
2022/01/16 07:16:19;;;;;;;;;;;;;;;;;;5003965;28;20723;-85
2022/01/16 07:18:45;;;;;;;;;;;;;;;;;;5008220;28;20412;-84
2022/01/16 07:21:14;;;;;;;;;;;;;;;;;;5003712;28;19969;-81
2022/01/16 07:23:41;;;;;;;;;;;;;;;;;;5008519;28;19953;-83
2022/01/16 07:26:07;;;;;;;;;;;;;;;;;;5000383;28;19957;-82
2022/01/16 07:28:33;;;;;;;;;;;;;;;;;;5011428;28;20395;-82
2022/01/16 07:30:59;;;;;;;;;;;;;;;;;;5019043;28;19964;-80
2022/01/16 07:33:25;;;;;;;;;;;;;;;;;;5022221;28;19925;-79
2022/01/16 07:35:52;;;;;;;;;;;;;;;;;;5018864;28;19971;-79
2022/01/16 07:38:18;;;;;;;;;;;;;;;;;;5029346;28;19967;-78
2022/01/16 07:40:44;;;;;;;;;;;;;;;;;;5026991;28;20495;-79
2022/01/16 07:43:10;;;;;;;;;;;;;;;;;;5019915;28;19964;-79
2022/01/16 07:45:37;;;;;;;;;;;;;;;;;;5025707;28;19952;-78
2022/01/16 07:48:04;;;;;;;;;;;;;;;;;;5023139;28;19964;-78
2022/01/16 07:50:30;;;;;;;;;;;;;;;;;;5053238;28;19924;-81
2022/01/16 07:52:56;;;;;;;;;;;;;;;;;;5016435;28;19960;-79
2022/01/16 07:55:25;;;;;;;;;;;;;;;;;;5035666;28;19963;-79
2022/01/16 07:57:52;;;;;;;;;;;;;;;;;;5020413;28;19968;-78
2022/01/16 08:00:18;;;;;;;;;;;;;;;;;;5020545;28;20373;-78
2022/01/16 08:02:44;;;;;;;;;;;;;;;;;;5019816;28;20454;-78
2022/01/16 08:05:11;;;;;;;;;;;;;;;;;;5007359;28;19964;-78
2022/01/16 08:07:37;;;;;;;;;;;;;;;;;;5024599;28;20404;-79
2022/01/16 08:10:03;;;;;;;;;;;;;;;;;;5021759;28;19967;-79
2022/01/16 08:12:29;;;;;;;;;;;;;;;;;;5021344;28;19957;-79
2022/01/16 08:14:55;;;;;;;;;;;;;;;;;;5018363;28;20329;-79
2022/01/16 08:17:22;;;;;;;;;;;;;;;;;;5020066;28;19972;-80
2022/01/16 08:19:48;;;;;;;;;;;;;;;;;;5019766;28;19961;-78
2022/01/16 08:22:14;;;;;;;;;;;;;;;;;;5020331;28;19960;-78
2022/01/16 08:24:40;;;;;;;;;;;;;;;;;;5022934;28;19964;-80
2022/01/16 08:27:06;;;;;;;;;;;;;;;;;;5021818;28;20006;-80
2022/01/16 08:29:33;;;;;;;;;;;;;;;;;;5026719;28;20939;-79
2022/01/16 08:31:59;;;;;;;;;;;;;;;;;;5026095;28;19971;-79
2022/01/16 08:34:25;;;;;;;;;;;;;;;;;;5021200;28;19975;-80
2022/01/16 08:36:51;;;;;;;;;;;;;;;;;;5022758;28;19960;-80
2022/01/16 08:39:17;;;;;;;;;;;;;;;;;;5026990;28;19964;-79
2022/01/16 08:41:43;;;;;;;;;;;;;;;;;;5022112;28;20427;-80
2022/01/16 08:44:10;;;;;;;;;;;;;;;;;;5023861;28;19953;-80
2022/01/16 08:46:36;;;;;;;;;;;;;;;;;;5056687;28;19956;-79
2022/01/16 08:49:02;;;;;;;;;;;;;;;;;;5022152;28;19917;-79
2022/01/16 08:51:28;;;;;;;;;;;;;;;;;;5017272;28;20018;-80
2022/01/16 08:53:55;;;;;;;;;;;;;;;;;;5014585;28;19921;-79
2022/01/16 08:56:21;;;;;;;;;;;;;;;;;;5021025;28;19952;-78
2022/01/16 08:58:47;;;;;;;;;;;;;;;;;;5014198;28;19921;-77
2022/01/16 09:01:13;;;;;;;;;;;;;;;;;;5018711;28;19963;-79
2022/01/16 09:03:40;;;;;;;;;;;;;;;;;;5023422;28;20011;-78
2022/01/16 09:06:06;;;;;;;;;;;;;;;;;;5021496;28;19960;-79
2022/01/16 09:08:33;;;;;;;;;;;;;;;;;;5049180;28;19925;-78
2022/01/16 09:10:59;;;;;;;;;;;;;;;;;;5022787;28;19944;-79
2022/01/16 09:13:25;;;;;;;;;;;;;;;;;;5021514;28;19952;-79
2022/01/16 09:15:51;;;;;;;;;;;;;;;;;;5022579;28;19949;-80
2022/01/16 09:18:17;;;;;;;;;;;;;;;;;;5028574;28;19952;-79
2022/01/16 09:20:44;;;;;;;;;;;;;;;;;;5020614;28;20350;-79
2022/01/16 09:23:10;;;;;;;;;;;;;;;;;;5024409;28;19956;-78
2022/01/16 09:25:36;;;;;;;;;;;;;;;;;;5037553;28;20414;-79
2022/01/16 09:28:02;;;;;;;;;;;;;;;;;;5023322;28;19972;-79
2022/01/16 09:30:28;;;;;;;;;;;;;;;;;;5017721;28;19921;-78
2022/01/16 09:32:55;;;;;;;;;;;;;;;;;;5024892;28;19944;-80
2022/01/16 09:35:21;;;;;;;;;;;;;;;;;;5033173;28;19952;-78
2022/01/16 09:37:47;;;;;;;;;;;;;;;;;;5020557;28;19949;-79
2022/01/16 09:40:13;;;;;;;;;;;;;;;;;;5017044;28;20396;-78
2022/01/16 09:42:39;;;;;;;;;;;;;;;;;;5015554;28;19967;-78
2022/01/16 09:45:06;;;;;;;;;;;;;;;;;;5012160;28;19944;-79
2022/01/16 09:47:32;;;;;;;;;;;;;;;;;;5033988;28;19999;-78
2022/01/16 09:49:58;;;;;;;;;;;;;;;;;;5015966;28;19949;-78
2022/01/16 09:52:24;;;;;;;;;;;;;;;;;;5018423;28;19913;-79
2022/01/16 09:54:50;;;;;;;;;;;;;;;;;;5022375;28;20397;-79
2022/01/16 09:57:17;;;;;;;;;;;;;;;;;;5016318;28;19937;-78
2022/01/16 09:59:43;;;;;;;;;;;;;;;;;;4992747;28;21875;-79
2022/01/16 10:02:09;;;;;;;;;;;;;;;;;;4999727;28;19987;-79
2022/01/16 10:04:35;;;;;;;;;;;;;;;;;;5000301;28;19948;-79
2022/01/16 10:07:01;;;;;;;;;;;;;;;;;;4999245;28;19968;-77
2022/01/16 10:09:28;;;;;;;;;;;;;;;;;;5013688;28;19980;-80
2022/01/16 10:11:55;;;;;;;;;;;;;;;;;;5009562;28;19999;-78
2022/01/16 10:14:23;;;;;;;;;;;;;;;;;;5016162;28;19921;-78
2022/01/16 10:16:49;;;;;;;;;;;;;;;;;;5023851;28;19957;-80
2022/01/16 10:19:15;;;;;;;;;;;;;;;;;;5016313;28;19964;-79
2022/01/16 10:21:42;;;;;;;;;;;;;;;;;;5018888;28;19966;-80
2022/01/16 10:24:08;;;;;;;;;;;;;;;;;;5013952;28;19953;-80
2022/01/16 10:26:35;;;;;;;;;;;;;;;;;;5028672;28;19952;-81
2022/01/16 10:29:01;;;;;;;;;;;;;;;;;;5026859;28;20657;-80
2022/01/16 10:31:27;;;;;;;;;;;;;;;;;;5025944;28;19971;-81
2022/01/16 10:33:53;;;;;;;;;;;;;;;;;;5049221;28;19956;-82
2022/01/16 10:36:19;;;;;;;;;;;;;;;;;;5022841;28;20419;-80
2022/01/16 10:38:46;;;;;;;;;;;;;;;;;;5024307;28;19960;-79
2022/01/16 10:41:12;;;;;;;;;;;;;;;;;;5032669;28;19937;-80
2022/01/16 10:43:38;;;;;;;;;;;;;;;;;;5048359;28;19917;-82
2022/01/16 10:46:04;;;;;;;;;;;;;;;;;;5055622;28;19927;-80
2022/01/16 10:48:32;;;;;;;;;;;;;;;;;;5035042;28;19956;-79
2022/01/16 10:50:58;;;;;;;;;;;;;;;;;;5027354;28;19975;-80
2022/01/16 10:53:24;;;;;;;;;;;;;;;;;;5028205;28;19917;-81
2022/01/16 10:55:51;;;;;;;;;;;;;;;;;;5026117;28;19961;-79
2022/01/16 10:58:17;;;;;;;;;;;;;;;;;;5024845;28;20007;-80
2022/01/16 11:00:43;;;;;;;;;;;;;;;;;;5027209;28;19948;-81
2022/01/16 11:03:10;;;;;;;;;;;;;;;;;;5023165;28;19957;-79
2022/01/16 11:05:36;;;;;;;;;;;;;;;;;;5023265;28;20514;-80
2022/01/16 11:08:02;;;;;;;;;;;;;;;;;;5022956;28;19961;-81
2022/01/16 11:10:28;;;;;;;;;;;;;;;;;;5031874;28;19952;-79
2022/01/16 11:12:55;;;;;;;;;;;;;;;;;;5018659;28;19957;-80
2022/01/16 11:15:21;;;;;;;;;;;;;;;;;;5026903;28;19994;-78
2022/01/16 11:17:47;;;;;;;;;;;;;;;;;;5025939;28;19948;-80
2022/01/16 11:20:13;;;;;;;;;;;;;;;;;;5025036;28;19960;-79
2022/01/16 11:23:01;;;;;;;;;;;;;;;;;;5026527;28;19968;-80
2022/01/16 11:25:36;;;;;;;;;;;;;;;;;;5026937;28;21352;-83
2022/01/16 11:28:02;;;;;;;;;;;;;;;;;;5028094;28;19983;-84
2022/01/16 11:30:29;;;;;;;;;;;;;;;;;;5009253;28;19961;-84
2022/01/16 11:32:55;;;;;;;;;;;;;;;;;;5005804;28;19960;-82
2022/01/16 11:35:21;;;;;;;;;;;;;;;;;;5008894;28;20270;-82
2022/01/16 11:37:48;;;;;;;;;;;;;;;;;;5000259;28;19972;-84
2022/01/16 11:40:14;;;;;;;;;;;;;;;;;;5004389;28;19961;-83
2022/01/16 11:42:40;;;;;;;;;;;;;;;;;;5011859;28;19929;-83
2022/01/16 11:45:06;;;;;;;;;;;;;;;;;;5012952;28;19968;-85
2022/01/16 11:47:33;;;;;;;;;;;;;;;;;;5025642;28;19917;-83
2022/01/16 11:49:59;;;;;;;;;;;;;;;;;;5025314;28;19953;-83
2022/01/16 11:52:25;;;;;;;;;;;;;;;;;;5019839;28;19946;-85
2022/01/16 11:54:53;;;;;;;;;;;;;;;;;;5006391;28;19931;-84
2022/01/16 11:57:20;;;;;;;;;;;;;;;;;;5047061;28;20296;-85
2022/01/16 11:59:46;;;;;;;;;;;;;;;;;;5003961;28;19998;-86
2022/01/16 12:02:12;;;;;;;;;;;;;;;;;;5000969;28;20011;-82
2022/01/16 12:04:40;;;;;;;;;;;;;;;;;;5003018;28;19956;-83
2022/01/16 12:07:07;;;;;;;;;;;;;;;;;;5007170;28;20266;-85
2022/01/16 12:09:33;;;;;;;;;;;;;;;;;;5004026;28;19975;-83
2022/01/16 12:11:59;;;;;;;;;;;;;;;;;;5019759;28;19964;-84
2022/01/16 12:14:25;;;;;;;;;;;;;;;;;;5013043;28;19929;-83
2022/01/16 12:16:51;;;;;;;;;;;;;;;;;;5007873;28;19968;-82
2022/01/16 12:19:18;;;;;;;;;;;;;;;;;;5027488;28;19963;-83
2022/01/16 12:21:44;;;;;;;;;;;;;;;;;;5022565;28;19953;-83
2022/01/16 12:24:10;;;;;;;;;;;;;;;;;;5023833;28;19969;-85
2022/01/16 12:26:36;;;;;;;;;;;;;;;;;;5028240;28;19968;-83
2022/01/16 12:29:02;;;;;;;;;;;;;;;;;;5063859;28;19964;-83
2022/01/16 12:31:29;;;;;;;;;;;;;;;;;;5028347;28;20395;-85
2022/01/16 12:33:59;;;;;;;;;;;;;;;;;;5037311;28;19963;-85
2022/01/16 12:36:25;;;;;;;;;;;;;;;;;;5031983;28;19913;-88
2022/01/16 12:38:51;;;;;;;;;;;;;;;;;;5048382;28;19913;-82
2022/01/16 12:41:18;;;;;;;;;;;;;;;;;;5029171;28;19928;-86
2022/01/16 12:43:47;;;;;;;;;;;;;;;;;;5030681;28;19937;-85
2022/01/16 12:46:14;;;;;;;;;;;;;;;;;;5026874;28;19968;-85
2022/01/16 12:48:40;;;;;;;;;;;;;;;;;;5035988;28;19959;-86
2022/01/16 12:51:07;;;;;;;;;;;;;;;;;;5036996;28;19963;-80
2022/01/16 12:53:33;;;;;;;;;;;;;;;;;;5028194;28;19966;-78
2022/01/16 12:55:59;;;;;;;;;;;;;;;;;;5063897;28;19979;-77
2022/01/16 12:58:25;;;;;;;;;;;;;;;;;;5021257;28;19945;-89
2022/01/16 13:00:51;;;;;;;;;;;;;;;;;;5030994;28;19947;-85
2022/01/16 13:03:17;;;;;;;;;;;;;;;;;;5035696;28;19936;-88
2022/01/16 13:05:44;;;;;;;;;;;;;;;;;;5028793;28;19948;-81
2022/01/16 13:08:10;;;;;;;;;;;;;;;;;;5024743;28;19960;-84
2022/01/16 13:10:36;;;;;;;;;;;;;;;;;;5007375;28;19968;-81
2022/01/16 13:13:02;;;;;;;;;;;;;;;;;;5019670;28;20483;-86
2022/01/16 13:15:28;;;;;;;;;;;;;;;;;;5042533;28;20392;-83
2022/01/16 13:17:55;;;;;;;;;;;;;;;;;;5024449;28;19972;-88
2022/01/16 13:20:21;;;;;;;;;;;;;;;;;;5020688;28;19975;-82
2022/01/16 13:22:49;;;;;;;;;;;;;;;;;;5024494;28;19984;-83
2022/01/16 13:25:17;;;;;;;;;;;;;;;;;;5027261;28;19955;-80
2022/01/16 13:27:43;;;;;;;;;;;;;;;;;;5026616;28;19959;-87
2022/01/16 13:30:11;;;;;;;;;;;;;;;;;;5021270;28;19956;-73
2022/01/16 13:32:37;;;;;;;;;;;;;;;;;;5024613;28;20006;-73
2022/01/16 13:35:03;;;;;;;;;;;;;;;;;;5026128;28;19978;-73
2022/01/16 13:37:29;;;;;;;;;;;;;;;;;;5024820;28;19948;-73
2022/01/16 13:39:55;;;;;;;;;;;;;;;;;;5021033;28;20401;-73
2022/01/16 13:42:25;;;;;;;;;;;;;;;;;;5027748;28;19972;-73
2022/01/16 13:44:52;;;;;;;;;;;;;;;;;;5022534;28;19952;-77
2022/01/16 13:47:18;;;;;;;;;;;;;;;;;;5023796;28;19948;-76
2022/01/16 13:49:44;;;;;;;;;;;;;;;;;;5025651;28;19965;-76
2022/01/16 13:52:10;;;;;;;;;;;;;;;;;;5022584;28;19960;-75
2022/01/16 13:54:37;;;;;;;;;;;;;;;;;;5025678;28;20473;-76
2022/01/16 13:57:03;;;;;;;;;;;;;;;;;;5052534;28;19960;-76
2022/01/16 13:59:29;;;;;;;;;;;;;;;;;;5023078;28;20018;-74
2022/01/16 14:01:55;;;;;;;;;;;;;;;;;;5022706;28;19963;-74
2022/01/16 14:04:21;;;;;;;;;;;;;;;;;;5026049;28;19963;-73
2022/01/16 14:06:48;;;;;;;;;;;;;;;;;;5023903;28;20011;-73
2022/01/16 14:09:15;;;;;;;;;;;;;;;;;;5019950;28;19960;-74
2022/01/16 14:11:43;;;;;;;;;;;;;;;;;;5018178;28;19956;-75
2022/01/16 14:14:09;;;;;;;;;;;;;;;;;;5019616;28;20348;-75
2022/01/16 14:16:47;;;;;;;;;;;;;;;;;;5022412;28;19925;-75
2022/01/16 14:19:16;;;;;;;;;;;;;;;;;;5021989;28;19953;-74
2022/01/16 14:24:27;;;;;;;;;;;;;;;;;;5019690;28;22438;-74
2022/01/16 14:26:53;;;;;;;;;;;;;;;;;;5018037;28;19960;-75
2022/01/16 14:29:19;;;;;;;;;;;;;;;;;;5025036;28;19952;-74
2022/01/16 14:31:45;;;;;;;;;;;;;;;;;;5025231;28;19968;-74
2022/01/16 14:34:11;;;;;;;;;;;;;;;;;;5020910;28;19961;-74
2022/01/16 14:36:38;;;;;;;;;;;;;;;;;;5019482;28;19968;-74
2022/01/16 14:39:04;;;;;;;;;;;;;;;;;;5015961;28;20633;-73
2022/01/16 14:41:33;;;;;;;;;;;;;;;;;;5000681;28;19972;-74
2022/01/16 14:44:01;;;;;;;;;;;;;;;;;;5000969;28;20007;-75
2022/01/16 14:46:28;;;;;;;;;;;;;;;;;;5002881;28;19965;-74
2022/01/16 14:48:55;;;;;;;;;;;;;;;;;;5001271;28;20043;-73
2022/01/16 14:51:21;;;;;;;;;;;;;;;;;;5003544;28;19948;-78
2022/01/16 14:53:47;;;;;;;;;;;;;;;;;;4999228;28;19984;-79
2022/01/16 14:56:16;;;;;;;;;;;;;;;;;;5004710;28;19956;-78
2022/01/16 14:58:42;;;;;;;;;;;;;;;;;;5008322;28;19953;-79
2022/01/16 15:01:09;;;;;;;;;;;;;;;;;;5001021;28;19965;-83
2022/01/16 15:03:36;;;;;;;;;;;;;;;;;;5006280;28;20000;-82
2022/01/16 15:06:06;;;;;;;;;;;;;;;;;;5006531;28;19966;-86
2022/01/16 15:08:33;;;;;;;;;;;;;;;;;;5040062;28;19992;-78
2022/01/16 15:10:59;;;;;;;;;;;;;;;;;;5005727;28;20584;-80
2022/01/16 15:13:25;;;;;;;;;;;;;;;;;;5018253;28;19960;-77
2022/01/16 15:15:51;;;;;;;;;;;;;;;;;;5018838;28;19918;-81
2022/01/16 15:18:19;;;;;;;;;;;;;;;;;;5005658;28;20456;-80
2022/01/16 15:20:46;;;;;;;;;;;;;;;;;;5005183;28;19964;-80
2022/01/16 15:23:12;;;;;;;;;;;;;;;;;;5034574;28;19956;-80
2022/01/16 15:25:38;;;;;;;;;;;;;;;;;;5001092;28;20448;-79
2022/01/16 15:28:04;;;;;;;;;;;;;;;;;;5004769;28;19976;-79
2022/01/16 15:30:31;;;;;;;;;;;;;;;;;;5018044;28;20401;-79
2022/01/16 15:32:57;;;;;;;;;;;;;;;;;;5025831;28;19964;-78
2022/01/16 15:35:24;;;;;;;;;;;;;;;;;;5038575;28;19956;-79
2022/01/16 15:37:52;;;;;;;;;;;;;;;;;;5020341;28;20393;-79
2022/01/16 15:40:18;;;;;;;;;;;;;;;;;;5014954;28;21344;-79
2022/01/16 15:42:44;;;;;;;;;;;;;;;;;;4996943;28;19965;-79
2022/01/16 15:45:11;;;;;;;;;;;;;;;;;;5015152;28;20392;-80
2022/01/16 15:47:39;;;;;;;;;;;;;;;;;;5027866;28;19972;-80
2022/01/16 15:50:05;;;;;;;;;;;;;;;;;;5004568;28;20358;-79
2022/01/16 15:52:31;;;;;;;;;;;;;;;;;;5006514;28;19953;-78
2022/01/16 15:54:57;;;;;;;;;;;;;;;;;;5004973;28;20019;-82
2022/01/16 15:57:23;;;;;;;;;;;;;;;;;;5004460;28;19984;-85
2022/01/16 15:59:50;;;;;;;;;;;;;;;;;;5005284;28;19980;-88
2022/01/16 16:02:16;;;;;;;;;;;;;;;;;;5003498;28;19957;-88
2022/01/16 16:04:42;;;;;;;;;;;;;;;;;;5007926;28;19953;-89
2022/01/16 16:07:08;;;;;;;;;;;;;;;;;;5005127;28;19967;-81
2022/01/16 16:09:34;;;;;;;;;;;;;;;;;;5002904;28;19964;-82
2022/01/16 16:12:05;;;;;;;;;;;;;;;;;;5003937;28;19956;-87
2022/01/16 16:14:31;;;;;;;;;;;;;;;;;;5007294;28;19971;-86
2022/01/16 16:16:59;;;;;;;;;;;;;;;;;;5008757;28;19925;-86
2022/01/16 16:19:25;;;;;;;;;;;;;;;;;;5024598;28;19956;-87
2022/01/16 16:21:52;;;;;;;;;;;;;;;;;;5018938;28;20397;-89
2022/01/16 16:24:18;;;;;;;;;;;;;;;;;;5023115;28;20023;-87
2022/01/16 16:26:44;;;;;;;;;;;;;;;;;;5018222;28;19965;-86
2022/01/16 16:29:10;;;;;;;;;;;;;;;;;;5009339;28;19960;-86
2022/01/16 16:31:36;;;;;;;;;;;;;;;;;;5016320;28;19957;-87
2022/01/16 16:34:02;;;;;;;;;;;;;;;;;;5023794;28;19956;-87
2022/01/16 16:36:29;;;;;;;;;;;;;;;;;;5020184;28;19931;-87
2022/01/16 16:38:55;;;;;;;;;;;;;;;;;;5019172;28;19957;-87
2022/01/16 16:41:21;;;;;;;;;;;;;;;;;;5019837;28;20377;-87
2022/01/16 16:43:47;;;;;;;;;;;;;;;;;;5025825;28;19948;-87
2022/01/16 16:46:14;;;;;;;;;;;;;;;;;;5018527;28;19941;-86
2022/01/16 16:48:40;;;;;;;;;;;;;;;;;;5024672;28;22711;-86
2022/01/16 16:51:06;;;;;;;;;;;;;;;;;;5020370;28;20452;-88
2022/01/16 16:53:32;;;;;;;;;;;;;;;;;;5021474;28;19956;-87
2022/01/16 16:55:58;;;;;;;;;;;;;;;;;;5023014;28;19975;-87
2022/01/16 16:58:25;;;;;;;;;;;;;;;;;;5021870;28;21381;-86
2022/01/16 17:00:51;;;;;;;;;;;;;;;;;;5023277;28;19963;-87
2022/01/16 17:03:17;;;;;;;;;;;;;;;;;;5023730;28;20317;-86
2022/01/16 17:05:43;;;;;;;;;;;;;;;;;;5021636;28;19949;-86
2022/01/16 17:08:09;;;;;;;;;;;;;;;;;;5019092;28;19928;-85
2022/01/16 17:10:36;;;;;;;;;;;;;;;;;;5020820;28;19957;-86
2022/01/16 17:13:02;;;;;;;;;;;;;;;;;;5023671;28;19936;-87
2022/01/16 17:15:29;;;;;;;;;;;;;;;;;;5026634;28;19997;-87
2022/01/16 17:17:55;;;;;;;;;;;;;;;;;;5028359;28;19956;-87
2022/01/16 17:20:21;;;;;;;;;;;;;;;;;;5018464;28;19917;-87
2022/01/16 17:22:50;;;;;;;;;;;;;;;;;;5019153;28;19972;-85
2022/01/16 17:25:17;;;;;;;;;;;;;;;;;;5033680;28;19940;-86
2022/01/16 17:27:43;;;;;;;;;;;;;;;;;;5022482;28;19917;-87